Time;durP1;ratioP1;P1;durP2;ratioP2;P2;SDS_P1;SDS_P2;PMS_P1;PMS_P2;Temp;Humidity;BMP_temperature;BMP_pressure;BME280_temperature;BME280_humidity;BME280_pressure;Samples;Min_cycle;Max_cycle;Signal;HPM_P1;HPM_P2
2020/12/14 00:01:47;;;;;;;6.85;2.10;;;6.00;99.90;;;;;;6745717;88;20184;-78
2020/12/14 00:11:48;;;;;;;4.60;1.40;;;6.00;99.90;;;;;;6744321;88;20339;-78
2020/12/14 00:21:55;;;;;;;7.30;1.95;;;5.90;99.90;;;;;;6738169;88;20274;-77
2020/12/14 00:31:55;;;;;;;7.45;2.25;;;5.80;99.90;;;;;;6737779;88;20233;-77
2020/12/14 00:41:56;;;;;;;3.45;1.60;;;5.80;99.90;;;;;;6754448;88;20682;-77
2020/12/14 00:51:57;;;;;;;5.57;1.55;;;5.80;99.90;;;;;;6746374;88;20189;-78
2020/12/14 01:01:58;;;;;;;7.55;1.87;;;5.80;99.90;;;;;;6744097;88;20209;-78
2020/12/14 01:12:02;;;;;;;5.22;1.67;;;5.70;99.90;;;;;;6742490;88;20196;-77
2020/12/14 01:22:02;;;;;;;5.37;1.67;;;5.70;99.90;;;;;;6743161;88;20176;-77
2020/12/14 01:32:03;;;;;;;5.40;1.67;;;5.70;99.90;;;;;;6743104;88;20181;-77
2020/12/14 01:42:03;;;;;;;3.95;1.67;;;5.80;99.90;;;;;;6739595;88;20193;-77
2020/12/14 01:52:04;;;;;;;5.37;1.45;;;5.80;99.90;;;;;;6743385;88;20295;-77
2020/12/14 02:02:04;;;;;;;8.37;1.60;;;6.00;99.90;;;;;;6741681;88;20253;-77
2020/12/14 02:12:05;;;;;;;5.57;1.55;;;6.00;99.90;;;;;;6741549;88;20967;-77
2020/12/14 02:22:05;;;;;;;6.57;1.58;;;6.00;99.90;;;;;;6741319;88;20217;-78
2020/12/14 02:32:06;;;;;;;3.90;1.10;;;6.00;99.90;;;;;;6741697;88;20267;-77
2020/12/14 02:42:07;;;;;;;3.80;1.52;;;6.10;99.90;;;;;;6739912;88;20326;-77
2020/12/14 02:52:09;;;;;;;5.72;1.62;;;6.20;99.90;;;;;;6739696;88;20192;-78
2020/12/14 03:02:10;;;;;;;5.12;1.40;;;6.30;99.90;;;;;;6739380;88;20206;-78
2020/12/14 03:12:11;;;;;;;2.45;0.95;;;6.20;99.90;;;;;;6721768;88;20183;-77
2020/12/14 03:22:12;;;;;;;5.10;1.20;;;6.00;99.90;;;;;;6722804;88;20689;-77
2020/12/14 03:32:12;;;;;;;6.72;1.92;;;6.00;99.90;;;;;;6723730;88;20181;-77
2020/12/14 03:42:13;;;;;;;7.18;1.80;;;5.90;99.90;;;;;;6723477;88;20193;-77
2020/12/14 03:52:14;;;;;;;3.45;1.10;;;5.90;99.90;;;;;;6721827;88;20294;-77
2020/12/14 04:02:14;;;;;;;3.97;1.08;;;6.00;99.90;;;;;;6722707;88;20366;-77
2020/12/14 04:12:15;;;;;;;3.55;1.35;;;6.00;99.90;;;;;;6724714;88;20283;-77
2020/12/14 04:22:15;;;;;;;6.93;1.55;;;6.00;99.90;;;;;;6729175;88;20358;-77
2020/12/14 04:32:16;;;;;;;8.40;1.83;;;6.00;99.90;;;;;;6743424;88;20176;-77
2020/12/14 04:42:17;;;;;;;5.75;1.45;;;6.10;99.90;;;;;;6752697;88;20287;-77
2020/12/14 04:52:17;;;;;;;6.30;1.73;;;6.30;99.90;;;;;;6751351;88;20197;-78
2020/12/14 05:02:18;;;;;;;8.70;1.65;;;6.30;99.90;;;;;;6773154;88;20205;-77
2020/12/14 05:12:20;;;;;;;5.35;1.35;;;6.30;99.90;;;;;;6749035;77;20387;-72
2020/12/14 05:22:20;;;;;;;5.70;1.77;;;6.30;99.90;;;;;;6733566;88;20209;-72
2020/12/14 05:32:21;;;;;;;5.68;1.33;;;6.30;99.90;;;;;;6726705;88;20263;-71
2020/12/14 05:42:23;;;;;;;3.90;1.08;;;6.10;99.90;;;;;;6722523;88;20279;-72
2020/12/14 05:52:30;;;;;;;4.35;1.65;;;6.30;99.90;;;;;;6723844;87;20193;-72
2020/12/14 06:02:31;;;;;;;3.20;1.23;;;6.30;99.90;;;;;;6719430;88;20721;-72
2020/12/14 06:12:32;;;;;;;4.97;1.17;;;6.40;99.90;;;;;;6722938;88;20640;-72
2020/12/14 06:22:34;;;;;;;8.45;1.70;;;6.40;99.90;;;;;;6722386;88;20185;-73
2020/12/14 06:32:40;;;;;;;2.08;1.02;;;6.50;99.90;;;;;;6720933;88;20184;-72
2020/12/14 06:42:41;;;;;;;3.53;1.43;;;6.40;99.90;;;;;;6733970;88;20595;-72
2020/12/14 06:52:42;;;;;;;2.75;1.40;;;6.50;99.90;;;;;;6722597;88;20204;-71
2020/12/14 07:02:43;;;;;;;5.25;1.50;;;6.40;99.90;;;;;;6726321;88;20187;-72
2020/12/14 07:12:45;;;;;;;4.27;1.30;;;6.50;99.90;;;;;;6724975;88;20235;-72
2020/12/14 07:22:50;;;;;;;6.93;1.48;;;6.60;99.90;;;;;;6724279;88;20540;-72
2020/12/14 07:32:50;;;;;;;4.97;1.35;;;6.60;99.90;;;;;;6724038;88;20235;-73
2020/12/14 07:42:51;;;;;;;3.97;1.60;;;6.70;99.90;;;;;;6727690;88;20654;-73
2020/12/14 07:52:53;;;;;;;4.90;1.23;;;6.70;99.90;;;;;;6731911;88;20208;-73
2020/12/14 08:03:02;;;;;;;5.82;1.30;;;6.80;99.90;;;;;;6729623;88;20328;-73
2020/12/14 08:13:13;;;;;;;3.83;1.45;;;6.70;99.90;;;;;;6725308;88;20216;-73
2020/12/14 08:23:18;;;;;;;4.62;1.33;;;6.70;99.90;;;;;;6725711;88;20202;-73
2020/12/14 08:33:19;;;;;;;7.12;1.77;;;6.70;99.90;;;;;;6723135;88;20234;-73
2020/12/14 08:43:21;;;;;;;8.70;1.65;;;6.70;99.90;;;;;;6725640;88;20394;-73
2020/12/14 08:53:23;;;;;;;6.07;1.40;;;6.90;99.90;;;;;;6722966;88;20696;-73
2020/12/14 09:03:24;;;;;;;4.65;1.40;;;7.00;99.90;;;;;;6722643;88;20196;-73
2020/12/14 09:13:24;;;;;;;4.22;1.25;;;7.10;99.90;;;;;;6722564;88;20196;-73
2020/12/14 09:23:27;;;;;;;7.12;1.70;;;7.30;99.90;;;;;;6724099;88;20357;-74
2020/12/14 09:33:28;;;;;;;2.22;1.20;;;7.50;99.90;;;;;;6725801;88;20217;-74
2020/12/14 09:43:29;;;;;;;4.67;1.50;;;7.80;99.90;;;;;;6723635;88;20375;-75
2020/12/14 09:53:29;;;;;;;2.87;1.40;;;8.10;99.90;;;;;;6722746;88;20967;-75
2020/12/14 10:03:30;;;;;;;5.65;1.37;;;8.80;99.90;;;;;;6720099;88;20204;-74
2020/12/14 10:13:30;;;;;;;4.57;1.17;;;9.70;99.90;;;;;;6726657;88;20238;-74
2020/12/14 10:23:31;;;;;;;3.45;1.20;;;10.10;99.90;;;;;;6726817;88;20282;-74
2020/12/14 10:33:32;;;;;;;4.18;1.65;;;10.20;99.90;;;;;;6725953;88;20344;-74
2020/12/14 10:43:32;;;;;;;6.90;2.92;;;9.50;99.90;;;;;;6724458;88;20749;-70
2020/12/14 10:53:33;;;;;;;4.28;1.45;;;10.00;99.90;;;;;;6723560;88;20205;-74
2020/12/14 11:03:33;;;;;;;2.40;1.33;;;9.90;99.90;;;;;;6722813;88;20230;-74
2020/12/14 11:13:34;;;;;;;3.55;1.52;;;9.50;99.90;;;;;;6730340;88;20189;-75
2020/12/14 11:23:34;;;;;;;4.12;1.35;;;10.10;99.90;;;;;;6731092;88;20217;-74
2020/12/14 11:33:35;;;;;;;3.08;1.35;;;10.70;99.90;;;;;;6729285;88;20182;-75
2020/12/14 11:43:36;;;;;;;5.75;1.70;;;10.50;99.90;;;;;;6727865;88;20203;-72
2020/12/14 11:53:37;;;;;;;4.37;1.40;;;11.30;99.90;;;;;;6718770;88;20648;-73
2020/12/14 12:03:37;;;;;;;3.97;1.60;;;11.30;99.90;;;;;;6723390;88;20672;-76
2020/12/14 12:13:39;;;;;;;6.15;1.48;;;11.10;99.90;;;;;;6729264;88;20256;-74
2020/12/14 12:23:39;;;;;;;3.40;1.25;;;10.70;99.90;;;;;;6725405;88;20611;-77
2020/12/14 12:33:40;;;;;;;3.55;1.42;;;10.80;99.90;;;;;;6724713;88;20224;-75
2020/12/14 12:43:41;;;;;;;6.47;1.50;;;10.70;99.90;;;;;;6730032;88;20284;-77
2020/12/14 12:53:41;;;;;;;4.07;1.27;;;10.60;99.90;;;;;;6733232;88;20311;-77
2020/12/14 13:03:42;;;;;;;3.75;1.58;;;10.60;99.90;;;;;;6728541;88;20309;-76
2020/12/14 13:13:42;;;;;;;3.90;1.20;;;10.60;99.90;;;;;;6728383;88;20193;-76
2020/12/14 13:23:43;;;;;;;3.30;1.12;;;10.60;99.90;;;;;;6727199;88;20263;-76
2020/12/14 13:33:45;;;;;;;3.92;1.27;;;10.40;99.90;;;;;;6725829;88;20253;-76
2020/12/14 13:43:46;;;;;;;2.30;1.08;;;10.50;99.90;;;;;;6729164;88;20692;-76
2020/12/14 13:53:47;;;;;;;3.55;1.27;;;11.40;99.90;;;;;;6732527;88;20189;-76
2020/12/14 14:03:48;;;;;;;3.78;1.42;;;10.90;99.90;;;;;;6725734;88;20374;-75
2020/12/14 14:13:49;;;;;;;2.80;1.20;;;11.00;99.90;;;;;;6728526;88;20373;-76
2020/12/14 14:23:49;;;;;;;4.60;1.27;;;11.10;99.90;;;;;;6734947;88;20640;-76
2020/12/14 14:33:50;;;;;;;3.20;1.50;;;10.80;99.90;;;;;;6719548;88;20207;-75
2020/12/14 14:43:51;;;;;;;3.55;1.55;;;10.70;99.90;;;;;;6731545;88;20239;-76
2020/12/14 14:53:51;;;;;;;3.15;1.33;;;10.50;99.90;;;;;;6733484;77;20767;-77
2020/12/14 15:03:53;;;;;;;4.40;1.60;;;10.40;99.90;;;;;;6747362;87;20252;-75
2020/12/14 15:13:54;;;;;;;4.43;1.62;;;10.10;99.90;;;;;;6752982;87;20216;-76
2020/12/14 15:23:54;;;;;;;3.83;1.58;;;10.00;99.90;;;;;;6750445;88;20234;-74
2020/12/14 15:33:55;;;;;;;3.47;1.55;;;9.90;99.90;;;;;;6749111;88;20236;-75
2020/12/14 15:43:55;;;;;;;3.60;1.40;;;9.70;99.90;;;;;;6748958;88;20220;-76
2020/12/14 15:53:56;;;;;;;4.90;1.50;;;9.60;99.90;;;;;;6744673;87;20205;-75
2020/12/14 16:03:56;;;;;;;3.55;1.50;;;9.60;99.90;;;;;;6746923;88;20282;-76
2020/12/14 16:13:57;;;;;;;4.62;1.48;;;9.50;99.90;;;;;;6752014;88;20213;-75
2020/12/14 16:23:58;;;;;;;4.47;1.52;;;9.40;99.90;;;;;;6750854;87;20320;-76
2020/12/14 16:33:59;;;;;;;7.68;1.70;;;9.40;99.90;;;;;;6754141;88;20204;-78
2020/12/14 16:43:59;;;;;;;6.40;1.90;;;9.30;99.90;;;;;;6756088;88;20290;-74
2020/12/14 16:54:00;;;;;;;3.60;1.60;;;9.30;99.90;;;;;;6752860;87;20630;-75
2020/12/14 17:04:04;;;;;;;4.70;1.80;;;9.10;99.90;;;;;;6752898;87;20192;-74
2020/12/14 17:14:05;;;;;;;5.15;1.83;;;9.00;99.90;;;;;;6755159;88;20584;-75
2020/12/14 17:24:05;;;;;;;4.57;1.37;;;9.00;99.90;;;;;;6753753;88;20378;-75
2020/12/14 17:34:11;;;;;;;4.95;1.90;;;9.00;99.90;;;;;;6751255;88;20722;-75
2020/12/14 17:44:11;;;;;;;5.73;1.80;;;9.00;99.90;;;;;;6746432;88;20802;-75
2020/12/14 17:54:13;;;;;;;3.95;1.77;;;9.10;99.90;;;;;;6759689;87;20193;-76
2020/12/14 18:04:14;;;;;;;2.78;1.42;;;9.10;99.90;;;;;;6747935;87;20242;-75
2020/12/14 18:14:14;;;;;;;3.03;1.70;;;9.20;99.90;;;;;;6760842;88;20286;-77
2020/12/14 18:24:15;;;;;;;4.65;2.00;;;9.10;99.90;;;;;;6753176;88;20556;-75
2020/12/14 21:30:29;;;;;;;4.30;1.60;;;9.40;99.90;;;;;;6760464;88;20192;-77
2020/12/14 21:40:29;;;;;;;2.83;1.55;;;9.40;99.90;;;;;;6758745;88;20716;-78
2020/12/14 21:50:30;;;;;;;3.40;1.80;;;9.40;99.90;;;;;;6760596;88;20192;-78
2020/12/14 22:00:30;;;;;;;4.75;1.83;;;9.30;99.90;;;;;;6759979;88;20230;-78
2020/12/14 22:10:31;;;;;;;3.70;1.80;;;9.10;99.90;;;;;;6758094;88;20197;-77
2020/12/14 22:20:32;;;;;;;5.12;1.80;;;9.00;99.90;;;;;;6763463;88;20505;-77
2020/12/14 22:30:32;;;;;;;3.42;1.85;;;8.90;99.90;;;;;;6760387;88;20185;-78
2020/12/14 22:40:33;;;;;;;3.83;1.70;;;9.00;99.90;;;;;;6760473;87;20224;-77
2020/12/14 22:50:34;;;;;;;3.53;1.48;;;9.00;99.90;;;;;;6760867;87;20217;-76
2020/12/14 23:00:34;;;;;;;4.32;1.90;;;9.00;99.90;;;;;;6759735;88;20222;-78
2020/12/14 23:10:35;;;;;;;3.47;1.83;;;9.00;99.90;;;;;;6755758;88;20225;-78
2020/12/14 23:20:37;;;;;;;5.43;2.05;;;9.10;99.90;;;;;;6756633;88;20208;-77
2020/12/14 23:30:38;;;;;;;3.87;1.70;;;9.00;99.90;;;;;;6767204;88;20177;-79
2020/12/14 23:40:39;;;;;;;3.80;1.70;;;9.10;99.90;;;;;;6757362;88;20250;-76
2020/12/14 23:50:39;;;;;;;3.53;1.87;;;9.10;99.90;;;;;;6770394;87;20311;-76
